sensor_id;sensor_type;location;lat;lon;timestamp;P1;durP1;ratioP1;P2;durP2;ratioP2
68942;SDS011;60852;52.190;4.422;2024-01-30T00:01:19;20.84;;;20.48;;
68942;SDS011;60852;52.190;4.422;2024-01-30T00:03:44;20.79;;;20.64;;
68942;SDS011;60852;52.190;4.422;2024-01-30T00:06:10;20.02;;;19.78;;
68942;SDS011;60852;52.190;4.422;2024-01-30T00:08:37;20.85;;;20.65;;
68942;SDS011;60852;52.190;4.422;2024-01-30T00:11:02;19.82;;;19.79;;
68942;SDS011;60852;52.190;4.422;2024-01-30T00:13:28;20.19;;;20.00;;
68942;SDS011;60852;52.190;4.422;2024-01-30T00:15:53;19.08;;;19.06;;
68942;SDS011;60852;52.190;4.422;2024-01-30T00:18:19;19.76;;;19.71;;
68942;SDS011;60852;52.190;4.422;2024-01-30T00:20:45;18.51;;;18.51;;
68942;SDS011;60852;52.190;4.422;2024-01-30T00:23:10;18.74;;;18.69;;
68942;SDS011;60852;52.190;4.422;2024-01-30T00:25:36;18.72;;;18.60;;
68942;SDS011;60852;52.190;4.422;2024-01-30T00:28:01;19.26;;;19.04;;
68942;SDS011;60852;52.190;4.422;2024-01-30T00:30:27;18.80;;;18.73;;
68942;SDS011;60852;52.190;4.422;2024-01-30T00:32:53;19.40;;;19.26;;
68942;SDS011;60852;52.190;4.422;2024-01-30T00:35:19;19.04;;;18.91;;
68942;SDS011;60852;52.190;4.422;2024-01-30T00:37:47;19.54;;;19.36;;
68942;SDS011;60852;52.190;4.422;2024-01-30T00:40:12;18.90;;;18.85;;
68942;SDS011;60852;52.190;4.422;2024-01-30T00:42:43;18.81;;;18.81;;
68942;SDS011;60852;52.190;4.422;2024-01-30T00:45:16;18.35;;;18.16;;
68942;SDS011;60852;52.190;4.422;2024-01-30T00:47:42;18.28;;;18.18;;
68942;SDS011;60852;52.190;4.422;2024-01-30T00:50:08;18.24;;;18.22;;
68942;SDS011;60852;52.190;4.422;2024-01-30T00:52:34;18.87;;;18.67;;
68942;SDS011;60852;52.190;4.422;2024-01-30T00:55:00;18.44;;;18.29;;
68942;SDS011;60852;52.190;4.422;2024-01-30T00:57:26;18.48;;;18.41;;
68942;SDS011;60852;52.190;4.422;2024-01-30T00:59:52;17.64;;;17.60;;
68942;SDS011;60852;52.190;4.422;2024-01-30T01:02:17;18.02;;;17.97;;
68942;SDS011;60852;52.190;4.422;2024-01-30T01:04:43;18.13;;;18.11;;
68942;SDS011;60852;52.190;4.422;2024-01-30T01:07:09;18.03;;;18.03;;
68942;SDS011;60852;52.190;4.422;2024-01-30T01:09:35;18.07;;;18.07;;
68942;SDS011;60852;52.190;4.422;2024-01-30T01:12:01;17.83;;;17.83;;
68942;SDS011;60852;52.190;4.422;2024-01-30T01:14:27;17.25;;;17.24;;
68942;SDS011;60852;52.190;4.422;2024-01-30T01:16:52;17.95;;;17.83;;
68942;SDS011;60852;52.190;4.422;2024-01-30T01:19:18;17.66;;;17.58;;
68942;SDS011;60852;52.190;4.422;2024-01-30T01:21:43;18.03;;;17.62;;
68942;SDS011;60852;52.190;4.422;2024-01-30T01:24:09;17.59;;;17.54;;
68942;SDS011;60852;52.190;4.422;2024-01-30T01:26:34;17.39;;;17.14;;
68942;SDS011;60852;52.190;4.422;2024-01-30T01:29:00;17.37;;;17.36;;
68942;SDS011;60852;52.190;4.422;2024-01-30T01:31:25;17.06;;;17.05;;
68942;SDS011;60852;52.190;4.422;2024-01-30T01:33:54;16.91;;;16.87;;
68942;SDS011;60852;52.190;4.422;2024-01-30T01:36:20;17.08;;;17.08;;
68942;SDS011;60852;52.190;4.422;2024-01-30T01:38:45;16.38;;;16.38;;
68942;SDS011;60852;52.190;4.422;2024-01-30T01:41:11;16.35;;;16.33;;
68942;SDS011;60852;52.190;4.422;2024-01-30T01:43:36;17.00;;;16.90;;
68942;SDS011;60852;52.190;4.422;2024-01-30T01:46:04;16.78;;;16.78;;
68942;SDS011;60852;52.190;4.422;2024-01-30T01:48:30;16.64;;;16.59;;
68942;SDS011;60852;52.190;4.422;2024-01-30T01:50:57;16.70;;;16.70;;
68942;SDS011;60852;52.190;4.422;2024-01-30T01:53:23;16.84;;;16.84;;
68942;SDS011;60852;52.190;4.422;2024-01-30T01:55:49;17.14;;;17.05;;
68942;SDS011;60852;52.190;4.422;2024-01-30T01:58:17;17.11;;;17.05;;
68942;SDS011;60852;52.190;4.422;2024-01-30T02:00:46;16.86;;;16.86;;
68942;SDS011;60852;52.190;4.422;2024-01-30T02:03:12;17.04;;;16.93;;
68942;SDS011;60852;52.190;4.422;2024-01-30T02:05:39;16.97;;;16.73;;
68942;SDS011;60852;52.190;4.422;2024-01-30T02:08:06;16.18;;;16.18;;
68942;SDS011;60852;52.190;4.422;2024-01-30T02:10:31;16.95;;;16.94;;
68942;SDS011;60852;52.190;4.422;2024-01-30T02:12:57;16.99;;;16.79;;
68942;SDS011;60852;52.190;4.422;2024-01-30T02:15:22;16.18;;;16.18;;
68942;SDS011;60852;52.190;4.422;2024-01-30T02:17:48;16.55;;;16.42;;
68942;SDS011;60852;52.190;4.422;2024-01-30T02:20:13;16.90;;;16.79;;
68942;SDS011;60852;52.190;4.422;2024-01-30T02:22:39;17.63;;;17.17;;
68942;SDS011;60852;52.190;4.422;2024-01-30T02:25:06;16.01;;;16.01;;
68942;SDS011;60852;52.190;4.422;2024-01-30T02:27:32;16.41;;;16.39;;
68942;SDS011;60852;52.190;4.422;2024-01-30T02:29:57;16.69;;;16.68;;
68942;SDS011;60852;52.190;4.422;2024-01-30T02:32:23;16.41;;;16.39;;
68942;SDS011;60852;52.190;4.422;2024-01-30T02:34:49;16.66;;;16.27;;
68942;SDS011;60852;52.190;4.422;2024-01-30T02:37:14;16.29;;;16.28;;
68942;SDS011;60852;52.190;4.422;2024-01-30T02:39:40;16.46;;;16.13;;
68942;SDS011;60852;52.190;4.422;2024-01-30T02:42:05;16.46;;;16.41;;
68942;SDS011;60852;52.190;4.422;2024-01-30T02:44:31;15.84;;;15.76;;
68942;SDS011;60852;52.190;4.422;2024-01-30T02:46:56;15.92;;;15.92;;
68942;SDS011;60852;52.190;4.422;2024-01-30T02:49:21;15.99;;;15.99;;
68942;SDS011;60852;52.190;4.422;2024-01-30T02:51:47;16.46;;;16.46;;
68942;SDS011;60852;52.190;4.422;2024-01-30T02:54:13;16.67;;;16.66;;
68942;SDS011;60852;52.190;4.422;2024-01-30T02:56:38;16.17;;;16.15;;
68942;SDS011;60852;52.190;4.422;2024-01-30T02:59:03;15.84;;;15.84;;
68942;SDS011;60852;52.190;4.422;2024-01-30T03:01:29;16.35;;;16.30;;
68942;SDS011;60852;52.190;4.422;2024-01-30T03:03:54;16.02;;;15.87;;
68942;SDS011;60852;52.190;4.422;2024-01-30T03:06:20;15.66;;;15.66;;
68942;SDS011;60852;52.190;4.422;2024-01-30T03:08:46;15.95;;;15.95;;
68942;SDS011;60852;52.190;4.422;2024-01-30T03:11:12;16.24;;;16.23;;
68942;SDS011;60852;52.190;4.422;2024-01-30T03:13:37;15.88;;;15.72;;
68942;SDS011;60852;52.190;4.422;2024-01-30T03:16:03;15.70;;;15.70;;
68942;SDS011;60852;52.190;4.422;2024-01-30T03:18:28;15.80;;;15.80;;
68942;SDS011;60852;52.190;4.422;2024-01-30T03:20:54;15.71;;;15.71;;
68942;SDS011;60852;52.190;4.422;2024-01-30T03:23:19;15.83;;;15.83;;
68942;SDS011;60852;52.190;4.422;2024-01-30T03:25:45;15.34;;;15.33;;
68942;SDS011;60852;52.190;4.422;2024-01-30T03:28:10;16.06;;;15.94;;
68942;SDS011;60852;52.190;4.422;2024-01-30T03:30:36;15.69;;;15.69;;
68942;SDS011;60852;52.190;4.422;2024-01-30T03:33:01;15.63;;;15.63;;
68942;SDS011;60852;52.190;4.422;2024-01-30T03:35:27;15.58;;;15.47;;
68942;SDS011;60852;52.190;4.422;2024-01-30T03:37:52;15.61;;;15.60;;
68942;SDS011;60852;52.190;4.422;2024-01-30T03:40:17;15.60;;;15.57;;
68942;SDS011;60852;52.190;4.422;2024-01-30T03:42:43;16.06;;;15.89;;
68942;SDS011;60852;52.190;4.422;2024-01-30T03:45:08;15.88;;;15.88;;
68942;SDS011;60852;52.190;4.422;2024-01-30T03:47:34;15.64;;;15.57;;
68942;SDS011;60852;52.190;4.422;2024-01-30T03:49:59;15.53;;;15.25;;
68942;SDS011;60852;52.190;4.422;2024-01-30T03:52:25;15.17;;;15.16;;
68942;SDS011;60852;52.190;4.422;2024-01-30T03:54:50;16.05;;;15.99;;
68942;SDS011;60852;52.190;4.422;2024-01-30T03:57:16;15.04;;;15.04;;
68942;SDS011;60852;52.190;4.422;2024-01-30T03:59:44;15.20;;;15.16;;
68942;SDS011;60852;52.190;4.422;2024-01-30T04:02:10;15.51;;;15.39;;
68942;SDS011;60852;52.190;4.422;2024-01-30T04:04:36;15.95;;;15.95;;
68942;SDS011;60852;52.190;4.422;2024-01-30T04:07:02;15.34;;;15.34;;
68942;SDS011;60852;52.190;4.422;2024-01-30T04:09:27;15.25;;;15.25;;
68942;SDS011;60852;52.190;4.422;2024-01-30T04:11:53;15.33;;;15.18;;
68942;SDS011;60852;52.190;4.422;2024-01-30T04:14:19;14.87;;;14.86;;
68942;SDS011;60852;52.190;4.422;2024-01-30T04:16:44;15.56;;;15.50;;
68942;SDS011;60852;52.190;4.422;2024-01-30T04:19:10;15.11;;;14.88;;
68942;SDS011;60852;52.190;4.422;2024-01-30T04:21:35;15.53;;;15.08;;
68942;SDS011;60852;52.190;4.422;2024-01-30T04:24:01;14.65;;;14.57;;
68942;SDS011;60852;52.190;4.422;2024-01-30T04:26:26;14.74;;;14.74;;
68942;SDS011;60852;52.190;4.422;2024-01-30T04:28:52;15.00;;;15.00;;
68942;SDS011;60852;52.190;4.422;2024-01-30T04:31:17;14.76;;;14.70;;
68942;SDS011;60852;52.190;4.422;2024-01-30T04:33:43;15.10;;;15.02;;
68942;SDS011;60852;52.190;4.422;2024-01-30T04:36:08;14.93;;;14.84;;
68942;SDS011;60852;52.190;4.422;2024-01-30T04:38:37;15.06;;;15.01;;
68942;SDS011;60852;52.190;4.422;2024-01-30T04:41:04;15.43;;;15.11;;
68942;SDS011;60852;52.190;4.422;2024-01-30T04:43:29;13.69;;;13.65;;
68942;SDS011;60852;52.190;4.422;2024-01-30T04:45:55;15.11;;;15.07;;
68942;SDS011;60852;52.190;4.422;2024-01-30T04:48:21;15.11;;;15.11;;
68942;SDS011;60852;52.190;4.422;2024-01-30T04:50:47;15.13;;;15.13;;
68942;SDS011;60852;52.190;4.422;2024-01-30T04:53:12;14.74;;;14.74;;
68942;SDS011;60852;52.190;4.422;2024-01-30T04:55:38;14.62;;;14.62;;
68942;SDS011;60852;52.190;4.422;2024-01-30T04:58:03;15.05;;;15.00;;
68942;SDS011;60852;52.190;4.422;2024-01-30T05:00:29;14.71;;;14.61;;
68942;SDS011;60852;52.190;4.422;2024-01-30T05:02:55;14.89;;;14.62;;
68942;SDS011;60852;52.190;4.422;2024-01-30T05:05:20;14.43;;;14.42;;
68942;SDS011;60852;52.190;4.422;2024-01-30T05:07:47;14.63;;;14.58;;
68942;SDS011;60852;52.190;4.422;2024-01-30T05:10:12;14.35;;;14.34;;
68942;SDS011;60852;52.190;4.422;2024-01-30T05:12:38;14.52;;;14.46;;
68942;SDS011;60852;52.190;4.422;2024-01-30T05:15:04;14.40;;;14.40;;
68942;SDS011;60852;52.190;4.422;2024-01-30T05:17:30;14.81;;;14.69;;
68942;SDS011;60852;52.190;4.422;2024-01-30T05:19:55;14.25;;;14.19;;
68942;SDS011;60852;52.190;4.422;2024-01-30T05:22:21;14.26;;;14.09;;
68942;SDS011;60852;52.190;4.422;2024-01-30T05:24:46;14.66;;;14.50;;
68942;SDS011;60852;52.190;4.422;2024-01-30T05:27:12;13.95;;;13.93;;
68942;SDS011;60852;52.190;4.422;2024-01-30T05:29:38;13.92;;;13.92;;
68942;SDS011;60852;52.190;4.422;2024-01-30T05:32:04;14.01;;;13.96;;
68942;SDS011;60852;52.190;4.422;2024-01-30T05:34:33;14.03;;;13.93;;
68942;SDS011;60852;52.190;4.422;2024-01-30T05:37:00;13.15;;;13.15;;
68942;SDS011;60852;52.190;4.422;2024-01-30T05:39:26;13.62;;;13.56;;
68942;SDS011;60852;52.190;4.422;2024-01-30T05:41:51;13.50;;;13.50;;
68942;SDS011;60852;52.190;4.422;2024-01-30T05:44:17;13.58;;;13.48;;
68942;SDS011;60852;52.190;4.422;2024-01-30T05:46:42;14.16;;;13.95;;
68942;SDS011;60852;52.190;4.422;2024-01-30T05:49:08;12.97;;;12.97;;
68942;SDS011;60852;52.190;4.422;2024-01-30T05:51:33;13.71;;;13.71;;
68942;SDS011;60852;52.190;4.422;2024-01-30T05:53:59;13.47;;;13.45;;
68942;SDS011;60852;52.190;4.422;2024-01-30T05:56:24;13.38;;;13.35;;
68942;SDS011;60852;52.190;4.422;2024-01-30T05:58:50;13.30;;;13.29;;
68942;SDS011;60852;52.190;4.422;2024-01-30T06:01:16;13.90;;;13.90;;
68942;SDS011;60852;52.190;4.422;2024-01-30T06:03:41;13.89;;;13.89;;
68942;SDS011;60852;52.190;4.422;2024-01-30T06:06:08;13.68;;;13.65;;
68942;SDS011;60852;52.190;4.422;2024-01-30T06:08:34;13.33;;;13.31;;
68942;SDS011;60852;52.190;4.422;2024-01-30T06:11:00;14.03;;;14.02;;
68942;SDS011;60852;52.190;4.422;2024-01-30T06:13:26;13.75;;;13.75;;
68942;SDS011;60852;52.190;4.422;2024-01-30T06:15:52;14.36;;;14.31;;
68942;SDS011;60852;52.190;4.422;2024-01-30T06:18:17;14.02;;;13.94;;
68942;SDS011;60852;52.190;4.422;2024-01-30T06:20:43;13.85;;;13.72;;
68942;SDS011;60852;52.190;4.422;2024-01-30T06:23:08;13.83;;;13.82;;
68942;SDS011;60852;52.190;4.422;2024-01-30T06:25:34;14.46;;;14.32;;
68942;SDS011;60852;52.190;4.422;2024-01-30T06:27:59;13.26;;;13.22;;
68942;SDS011;60852;52.190;4.422;2024-01-30T06:30:25;14.16;;;13.93;;
68942;SDS011;60852;52.190;4.422;2024-01-30T06:32:50;14.11;;;14.10;;
68942;SDS011;60852;52.190;4.422;2024-01-30T06:35:16;14.02;;;14.01;;
68942;SDS011;60852;52.190;4.422;2024-01-30T06:37:42;14.04;;;14.02;;
68942;SDS011;60852;52.190;4.422;2024-01-30T06:40:08;13.58;;;13.56;;
68942;SDS011;60852;52.190;4.422;2024-01-30T06:42:34;13.82;;;13.56;;
68942;SDS011;60852;52.190;4.422;2024-01-30T06:44:59;13.90;;;13.75;;
68942;SDS011;60852;52.190;4.422;2024-01-30T06:47:25;14.18;;;14.13;;
68942;SDS011;60852;52.190;4.422;2024-01-30T06:49:50;14.35;;;14.27;;
68942;SDS011;60852;52.190;4.422;2024-01-30T06:52:16;14.79;;;14.59;;
68942;SDS011;60852;52.190;4.422;2024-01-30T06:54:41;14.39;;;14.33;;
68942;SDS011;60852;52.190;4.422;2024-01-30T06:57:07;13.92;;;13.91;;
68942;SDS011;60852;52.190;4.422;2024-01-30T06:59:37;13.87;;;13.73;;
68942;SDS011;60852;52.190;4.422;2024-01-30T07:02:08;14.36;;;14.30;;
68942;SDS011;60852;52.190;4.422;2024-01-30T07:04:34;13.90;;;13.90;;
68942;SDS011;60852;52.190;4.422;2024-01-30T07:07:02;14.19;;;14.19;;
68942;SDS011;60852;52.190;4.422;2024-01-30T07:09:28;14.55;;;14.52;;
68942;SDS011;60852;52.190;4.422;2024-01-30T07:11:54;14.43;;;14.26;;
68942;SDS011;60852;52.190;4.422;2024-01-30T07:14:20;14.34;;;14.30;;
68942;SDS011;60852;52.190;4.422;2024-01-30T07:16:46;13.63;;;13.59;;
68942;SDS011;60852;52.190;4.422;2024-01-30T07:19:11;14.25;;;14.07;;
68942;SDS011;60852;52.190;4.422;2024-01-30T07:21:37;14.20;;;14.17;;
68942;SDS011;60852;52.190;4.422;2024-01-30T07:24:02;13.89;;;13.88;;
68942;SDS011;60852;52.190;4.422;2024-01-30T07:26:27;14.39;;;14.39;;
68942;SDS011;60852;52.190;4.422;2024-01-30T07:28:53;14.12;;;14.12;;
68942;SDS011;60852;52.190;4.422;2024-01-30T07:31:18;14.49;;;14.47;;
68942;SDS011;60852;52.190;4.422;2024-01-30T07:33:46;14.51;;;14.51;;
68942;SDS011;60852;52.190;4.422;2024-01-30T07:36:11;14.43;;;14.43;;
68942;SDS011;60852;52.190;4.422;2024-01-30T07:38:37;14.43;;;14.42;;
68942;SDS011;60852;52.190;4.422;2024-01-30T07:41:02;14.78;;;14.68;;
68942;SDS011;60852;52.190;4.422;2024-01-30T07:43:28;15.61;;;15.50;;
68942;SDS011;60852;52.190;4.422;2024-01-30T07:45:53;15.72;;;15.71;;
68942;SDS011;60852;52.190;4.422;2024-01-30T07:48:19;15.77;;;15.75;;
68942;SDS011;60852;52.190;4.422;2024-01-30T07:50:44;15.17;;;15.15;;
68942;SDS011;60852;52.190;4.422;2024-01-30T07:53:10;14.63;;;14.63;;
68942;SDS011;60852;52.190;4.422;2024-01-30T07:55:35;14.49;;;14.49;;
68942;SDS011;60852;52.190;4.422;2024-01-30T07:58:01;15.41;;;15.27;;
68942;SDS011;60852;52.190;4.422;2024-01-30T08:00:26;15.20;;;15.15;;
68942;SDS011;60852;52.190;4.422;2024-01-30T08:02:54;15.48;;;15.38;;
68942;SDS011;60852;52.190;4.422;2024-01-30T08:05:20;15.29;;;15.26;;
68942;SDS011;60852;52.190;4.422;2024-01-30T08:07:47;15.71;;;15.62;;
68942;SDS011;60852;52.190;4.422;2024-01-30T08:10:13;16.50;;;16.40;;
68942;SDS011;60852;52.190;4.422;2024-01-30T08:12:40;16.16;;;16.10;;
68942;SDS011;60852;52.190;4.422;2024-01-30T08:15:06;14.96;;;14.96;;
68942;SDS011;60852;52.190;4.422;2024-01-30T08:17:32;15.51;;;15.44;;
68942;SDS011;60852;52.190;4.422;2024-01-30T08:19:58;15.65;;;15.64;;
68942;SDS011;60852;52.190;4.422;2024-01-30T08:22:24;17.04;;;16.92;;
68942;SDS011;60852;52.190;4.422;2024-01-30T08:24:49;15.75;;;15.72;;
68942;SDS011;60852;52.190;4.422;2024-01-30T08:27:15;16.01;;;15.94;;
68942;SDS011;60852;52.190;4.422;2024-01-30T08:29:40;16.48;;;16.48;;
68942;SDS011;60852;52.190;4.422;2024-01-30T08:32:06;16.51;;;16.44;;
68942;SDS011;60852;52.190;4.422;2024-01-30T08:34:32;15.93;;;15.87;;
68942;SDS011;60852;52.190;4.422;2024-01-30T08:36:58;15.99;;;15.86;;
68942;SDS011;60852;52.190;4.422;2024-01-30T08:39:23;16.40;;;16.39;;
68942;SDS011;60852;52.190;4.422;2024-01-30T08:41:50;16.71;;;16.65;;
68942;SDS011;60852;52.190;4.422;2024-01-30T08:44:16;16.02;;;15.88;;
68942;SDS011;60852;52.190;4.422;2024-01-30T08:46:42;16.50;;;16.31;;
68942;SDS011;60852;52.190;4.422;2024-01-30T08:49:09;16.01;;;15.96;;
68942;SDS011;60852;52.190;4.422;2024-01-30T08:51:35;16.17;;;16.15;;
68942;SDS011;60852;52.190;4.422;2024-01-30T08:54:01;15.64;;;15.62;;
68942;SDS011;60852;52.190;4.422;2024-01-30T08:56:28;15.57;;;15.41;;
68942;SDS011;60852;52.190;4.422;2024-01-30T08:58:53;15.82;;;15.71;;
68942;SDS011;60852;52.190;4.422;2024-01-30T09:01:19;16.54;;;16.34;;
68942;SDS011;60852;52.190;4.422;2024-01-30T09:03:44;16.06;;;15.98;;
68942;SDS011;60852;52.190;4.422;2024-01-30T09:06:12;15.96;;;15.90;;
68942;SDS011;60852;52.190;4.422;2024-01-30T09:08:38;14.39;;;14.38;;
68942;SDS011;60852;52.190;4.422;2024-01-30T09:11:13;12.53;;;12.50;;
68942;SDS011;60852;52.190;4.422;2024-01-30T09:13:39;12.51;;;12.39;;
68942;SDS011;60852;52.190;4.422;2024-01-30T09:16:05;10.86;;;10.67;;
68942;SDS011;60852;52.190;4.422;2024-01-30T09:18:31;10.86;;;10.61;;
68942;SDS011;60852;52.190;4.422;2024-01-30T09:20:57;10.44;;;10.05;;
68942;SDS011;60852;52.190;4.422;2024-01-30T09:23:23;9.20;;;8.69;;
68942;SDS011;60852;52.190;4.422;2024-01-30T09:25:48;8.87;;;8.10;;
68942;SDS011;60852;52.190;4.422;2024-01-30T09:28:14;9.04;;;8.04;;
68942;SDS011;60852;52.190;4.422;2024-01-30T09:30:39;7.70;;;6.86;;
68942;SDS011;60852;52.190;4.422;2024-01-30T09:33:05;7.29;;;6.20;;
68942;SDS011;60852;52.190;4.422;2024-01-30T09:35:31;8.07;;;6.54;;
68942;SDS011;60852;52.190;4.422;2024-01-30T09:37:57;6.19;;;4.88;;
68942;SDS011;60852;52.190;4.422;2024-01-30T09:40:23;5.06;;;3.97;;
68942;SDS011;60852;52.190;4.422;2024-01-30T09:42:49;4.81;;;3.61;;
68942;SDS011;60852;52.190;4.422;2024-01-30T09:45:17;5.07;;;3.64;;
68942;SDS011;60852;52.190;4.422;2024-01-30T09:47:44;4.90;;;3.45;;
68942;SDS011;60852;52.190;4.422;2024-01-30T09:50:11;5.76;;;3.88;;
68942;SDS011;60852;52.190;4.422;2024-01-30T09:52:38;6.51;;;4.27;;
68942;SDS011;60852;52.190;4.422;2024-01-30T09:55:04;6.54;;;4.20;;
68942;SDS011;60852;52.190;4.422;2024-01-30T09:57:31;7.17;;;4.50;;
68942;SDS011;60852;52.190;4.422;2024-01-30T09:59:57;6.13;;;3.93;;
68942;SDS011;60852;52.190;4.422;2024-01-30T10:02:22;6.73;;;4.28;;
68942;SDS011;60852;52.190;4.422;2024-01-30T10:04:49;6.41;;;3.99;;
68942;SDS011;60852;52.190;4.422;2024-01-30T10:07:18;7.80;;;4.83;;
68942;SDS011;60852;52.190;4.422;2024-01-30T10:09:44;7.10;;;4.37;;
68942;SDS011;60852;52.190;4.422;2024-01-30T10:12:10;8.00;;;4.88;;
68942;SDS011;60852;52.190;4.422;2024-01-30T10:14:40;7.43;;;4.53;;
68942;SDS011;60852;52.190;4.422;2024-01-30T10:17:07;6.82;;;4.21;;
68942;SDS011;60852;52.190;4.422;2024-01-30T10:19:34;6.74;;;4.22;;
68942;SDS011;60852;52.190;4.422;2024-01-30T10:22:00;5.61;;;3.50;;
68942;SDS011;60852;52.190;4.422;2024-01-30T10:24:26;5.41;;;3.35;;
68942;SDS011;60852;52.190;4.422;2024-01-30T10:26:53;6.54;;;4.03;;
68942;SDS011;60852;52.190;4.422;2024-01-30T10:29:18;7.91;;;4.80;;
68942;SDS011;60852;52.190;4.422;2024-01-30T10:31:44;8.02;;;4.86;;
68942;SDS011;60852;52.190;4.422;2024-01-30T10:34:09;8.54;;;5.14;;
68942;SDS011;60852;52.190;4.422;2024-01-30T10:36:38;9.47;;;5.71;;
68942;SDS011;60852;52.190;4.422;2024-01-30T10:39:08;8.67;;;5.27;;
68942;SDS011;60852;52.190;4.422;2024-01-30T10:41:35;8.05;;;4.95;;
68942;SDS011;60852;52.190;4.422;2024-01-30T10:44:11;8.03;;;4.97;;
68942;SDS011;60852;52.190;4.422;2024-01-30T10:46:43;7.53;;;4.65;;
68942;SDS011;60852;52.190;4.422;2024-01-30T10:49:16;7.59;;;4.69;;
68942;SDS011;60852;52.190;4.422;2024-01-30T10:51:42;8.30;;;5.10;;
68942;SDS011;60852;52.190;4.422;2024-01-30T10:54:09;8.15;;;5.04;;
68942;SDS011;60852;52.190;4.422;2024-01-30T10:56:36;8.37;;;5.14;;
68942;SDS011;60852;52.190;4.422;2024-01-30T10:59:01;8.54;;;5.17;;
68942;SDS011;60852;52.190;4.422;2024-01-30T11:01:28;7.35;;;4.53;;
68942;SDS011;60852;52.190;4.422;2024-01-30T11:03:55;8.96;;;5.57;;
68942;SDS011;60852;52.190;4.422;2024-01-30T11:06:22;7.99;;;4.92;;
68942;SDS011;60852;52.190;4.422;2024-01-30T11:09:03;7.99;;;4.96;;
68942;SDS011;60852;52.190;4.422;2024-01-30T11:14:26;8.87;;;5.49;;
68942;SDS011;60852;52.190;4.422;2024-01-30T11:16:59;8.82;;;5.52;;
68942;SDS011;60852;52.190;4.422;2024-01-30T11:19:25;7.51;;;4.73;;
68942;SDS011;60852;52.190;4.422;2024-01-30T11:21:55;8.73;;;5.41;;
68942;SDS011;60852;52.190;4.422;2024-01-30T11:24:22;7.54;;;4.71;;
68942;SDS011;60852;52.190;4.422;2024-01-30T11:26:49;7.31;;;4.65;;
68942;SDS011;60852;52.190;4.422;2024-01-30T11:29:24;6.85;;;4.42;;
68942;SDS011;60852;52.190;4.422;2024-01-30T11:31:53;6.83;;;4.42;;
68942;SDS011;60852;52.190;4.422;2024-01-30T11:34:22;8.55;;;5.45;;
68942;SDS011;60852;52.190;4.422;2024-01-30T11:36:52;7.75;;;4.93;;
68942;SDS011;60852;52.190;4.422;2024-01-30T11:39:24;7.78;;;5.01;;
68942;SDS011;60852;52.190;4.422;2024-01-30T11:41:51;7.39;;;4.77;;
68942;SDS011;60852;52.190;4.422;2024-01-30T11:44:21;7.01;;;4.53;;
68942;SDS011;60852;52.190;4.422;2024-01-30T11:46:48;8.29;;;5.34;;
68942;SDS011;60852;52.190;4.422;2024-01-30T11:49:14;7.92;;;5.11;;
68942;SDS011;60852;52.190;4.422;2024-01-30T11:51:41;7.22;;;4.77;;
68942;SDS011;60852;52.190;4.422;2024-01-30T11:54:07;7.29;;;4.84;;
68942;SDS011;60852;52.190;4.422;2024-01-30T11:56:33;8.14;;;5.26;;
68942;SDS011;60852;52.190;4.422;2024-01-30T11:58:58;7.37;;;4.85;;
68942;SDS011;60852;52.190;4.422;2024-01-30T12:01:25;7.97;;;5.26;;
68942;SDS011;60852;52.190;4.422;2024-01-30T12:03:52;8.20;;;5.41;;
68942;SDS011;60852;52.190;4.422;2024-01-30T12:06:17;7.48;;;5.05;;
68942;SDS011;60852;52.190;4.422;2024-01-30T12:08:43;7.45;;;5.07;;
68942;SDS011;60852;52.190;4.422;2024-01-30T12:11:22;7.58;;;5.19;;
68942;SDS011;60852;52.190;4.422;2024-01-30T12:13:47;7.35;;;4.96;;
68942;SDS011;60852;52.190;4.422;2024-01-30T12:16:13;8.87;;;5.87;;
68942;SDS011;60852;52.190;4.422;2024-01-30T12:18:38;8.51;;;5.60;;
68942;SDS011;60852;52.190;4.422;2024-01-30T12:21:04;8.63;;;5.56;;
68942;SDS011;60852;52.190;4.422;2024-01-30T12:23:30;8.17;;;5.28;;
68942;SDS011;60852;52.190;4.422;2024-01-30T12:25:55;8.85;;;5.88;;
68942;SDS011;60852;52.190;4.422;2024-01-30T12:28:21;8.98;;;5.89;;
68942;SDS011;60852;52.190;4.422;2024-01-30T12:30:46;8.82;;;5.75;;
68942;SDS011;60852;52.190;4.422;2024-01-30T12:33:18;8.53;;;5.68;;
68942;SDS011;60852;52.190;4.422;2024-01-30T12:35:47;8.27;;;5.61;;
68942;SDS011;60852;52.190;4.422;2024-01-30T12:38:13;8.66;;;5.82;;
68942;SDS011;60852;52.190;4.422;2024-01-30T12:40:39;7.64;;;5.28;;
68942;SDS011;60852;52.190;4.422;2024-01-30T12:43:05;7.29;;;5.16;;
68942;SDS011;60852;52.190;4.422;2024-01-30T12:45:31;6.91;;;4.91;;
68942;SDS011;60852;52.190;4.422;2024-01-30T12:47:56;7.43;;;5.37;;
68942;SDS011;60852;52.190;4.422;2024-01-30T12:50:23;6.80;;;4.93;;
68942;SDS011;60852;52.190;4.422;2024-01-30T12:52:49;6.85;;;4.91;;
68942;SDS011;60852;52.190;4.422;2024-01-30T12:55:15;6.81;;;4.89;;
68942;SDS011;60852;52.190;4.422;2024-01-30T12:57:40;6.43;;;4.79;;
68942;SDS011;60852;52.190;4.422;2024-01-30T13:00:07;6.99;;;5.36;;
68942;SDS011;60852;52.190;4.422;2024-01-30T13:02:35;7.16;;;5.69;;
68942;SDS011;60852;52.190;4.422;2024-01-30T13:05:02;6.77;;;5.44;;
68942;SDS011;60852;52.190;4.422;2024-01-30T13:07:29;7.15;;;5.78;;
68942;SDS011;60852;52.190;4.422;2024-01-30T13:09:54;7.81;;;6.16;;
68942;SDS011;60852;52.190;4.422;2024-01-30T13:12:20;7.15;;;5.86;;
68942;SDS011;60852;52.190;4.422;2024-01-30T13:14:45;6.78;;;5.67;;
68942;SDS011;60852;52.190;4.422;2024-01-30T13:17:11;5.99;;;5.28;;
68942;SDS011;60852;52.190;4.422;2024-01-30T13:19:37;6.42;;;5.64;;
68942;SDS011;60852;52.190;4.422;2024-01-30T13:22:02;6.37;;;5.57;;
68942;SDS011;60852;52.190;4.422;2024-01-30T13:24:28;6.67;;;5.86;;
68942;SDS011;60852;52.190;4.422;2024-01-30T13:26:53;6.76;;;5.87;;
68942;SDS011;60852;52.190;4.422;2024-01-30T13:29:19;6.57;;;5.70;;
68942;SDS011;60852;52.190;4.422;2024-01-30T13:31:44;6.49;;;5.60;;
68942;SDS011;60852;52.190;4.422;2024-01-30T13:34:11;6.35;;;5.48;;
68942;SDS011;60852;52.190;4.422;2024-01-30T13:36:37;5.96;;;5.22;;
68942;SDS011;60852;52.190;4.422;2024-01-30T13:39:03;5.64;;;5.02;;
68942;SDS011;60852;52.190;4.422;2024-01-30T13:41:32;6.15;;;5.27;;
68942;SDS011;60852;52.190;4.422;2024-01-30T13:43:58;6.70;;;5.81;;
68942;SDS011;60852;52.190;4.422;2024-01-30T13:46:23;6.72;;;5.77;;
68942;SDS011;60852;52.190;4.422;2024-01-30T13:48:49;6.68;;;5.68;;
68942;SDS011;60852;52.190;4.422;2024-01-30T13:51:14;6.57;;;5.69;;
68942;SDS011;60852;52.190;4.422;2024-01-30T13:53:41;6.99;;;6.02;;
68942;SDS011;60852;52.190;4.422;2024-01-30T13:56:07;6.55;;;5.62;;
68942;SDS011;60852;52.190;4.422;2024-01-30T13:58:32;7.05;;;6.00;;
68942;SDS011;60852;52.190;4.422;2024-01-30T14:00:58;6.57;;;5.50;;
68942;SDS011;60852;52.190;4.422;2024-01-30T14:03:24;6.62;;;5.47;;
68942;SDS011;60852;52.190;4.422;2024-01-30T14:05:49;6.72;;;5.66;;
68942;SDS011;60852;52.190;4.422;2024-01-30T14:08:15;6.49;;;5.40;;
68942;SDS011;60852;52.190;4.422;2024-01-30T14:10:41;6.38;;;5.52;;
68942;SDS011;60852;52.190;4.422;2024-01-30T14:13:06;5.55;;;4.93;;
68942;SDS011;60852;52.190;4.422;2024-01-30T14:15:32;5.76;;;5.16;;
68942;SDS011;60852;52.190;4.422;2024-01-30T14:17:57;5.78;;;5.22;;
68942;SDS011;60852;52.190;4.422;2024-01-30T14:20:23;5.55;;;5.08;;
68942;SDS011;60852;52.190;4.422;2024-01-30T14:22:48;5.76;;;5.30;;
68942;SDS011;60852;52.190;4.422;2024-01-30T14:25:13;5.16;;;4.70;;
68942;SDS011;60852;52.190;4.422;2024-01-30T14:27:39;5.03;;;4.71;;